Thursday, April 26, 2018, 5:39 AM EDT
Back to Local

KSLK, Adirondack Regional Airport

Location: Saranac Lake, NY, United States Lat: 44.4
Local Time: 5:39 AM EDT ( 9:39 GMT) Lon: -74.2
Time Zone: US/Eastern Elev: 1663 ft

Show me the last for .
Show Decoded

2018-04-26 05:06 METAR KSLK 260906Z AUTO 24004KT 3SM BR OVC004 07/07 A2956 RMK AO2 T00670067 =
2018-04-26 04:51 METAR KSLK 260851Z AUTO 24004KT 2SM BR OVC006 07/07 A2957 RMK AO2 RAE02 SLP018
                 P0001 60001 T00670067 56007 =
2018-04-26 04:33 METAR KSLK 260833Z AUTO 24004KT 1SM BR VV006 07/07 A2957 RMK AO2 RAE02 P0001
                 T00720072 =
2018-04-26 04:19 METAR KSLK 260819Z AUTO 25003KT 3/4SM BR VV006 07/07 A2957 RMK AO2 RAE02 P0000
                 T00720072 =
2018-04-26 03:51 METAR KSLK 260751Z AUTO 21004KT 1 1/2SM -RA BR SCT004 BKN008 OVC016 07/07 A2957
                 RMK AO2 RAB43 SLP019 P0000 T00720072 =
2018-04-26 03:43 METAR KSLK 260743Z AUTO 00000KT 1 1/2SM -RA BR SCT004 OVC008 07/07 A2957 RMK AO2
                 RAB43 P0000 T00670067 =
2018-04-26 03:29 METAR KSLK 260729Z AUTO 24003KT 2 1/2SM BR BKN004 OVC011 06/06 A2957 RMK AO2
                 T00610061 =
2018-04-26 03:21 METAR KSLK 260721Z AUTO 21003KT 2 1/2SM BR FEW006 OVC011 07/07 A2957 RMK AO2
                 T00670067 =
2018-04-26 03:11 METAR KSLK 260711Z AUTO 22003KT 1 1/2SM BR OVC010 06/06 A2958 RMK AO2 T00610061
                 =
2018-04-26 02:51 METAR KSLK 260651Z AUTO 00000KT 1 1/2SM BR OVC008 06/06 A2958 RMK AO2 SLP022
                 T00610061 =
2018-04-26 01:51 METAR KSLK 260551Z AUTO 00000KT 1 1/2SM BR OVC007 06/06 A2959 RMK AO2 SLP025
                 60009 T00610061 10078 20061 58019 =
2018-04-26 01:12 METAR KSLK 260512Z AUTO 00000KT 1 1/2SM BR OVC008 06/06 A2961 RMK AO2 T00610061
                 =
2018-04-26 00:51 METAR KSLK 260451Z AUTO 00000KT 2SM BR OVC006 07/07 A2961 RMK AO2 SLP031 P0001
                 T00720072 401220044 =
2018-04-26 00:28 METAR KSLK 260428Z AUTO 00000KT 2SM BR FEW004 OVC007 07/07 A2962 RMK AO2 P0001
                 T00670067 =
2018-04-26 00:00 METAR KSLK 260400Z AUTO 00000KT 1SM BR BKN006 OVC014 07/07 A2963 RMK AO2 P0001
                 T00670067 =
2018-04-25 23:51 METAR KSLK 260351Z AUTO 00000KT 2 1/2SM BR BKN006 OVC013 07/07 A2963 RMK AO2
                 RAB0255E13 SLP038 P0001 T00670067 =
2018-04-25 23:44 METAR KSLK 260344Z AUTO 00000KT 2 1/2SM BR OVC004 07/07 A2963 RMK AO2 RAB0255E13
                 P0001 T00670067 =
2018-04-25 23:28 METAR KSLK 260328Z AUTO 00000KT 3SM BR BKN003 OVC008 07/07 A2964 RMK AO2
                 RAB0255E13 P0001 T00670067 =
2018-04-25 23:11 METAR KSLK 260311Z AUTO 00000KT 3SM -RA BR FEW007 OVC012 07/07 A2965 RMK AO2
                 RAB0255 P0001 T00670067 =
2018-04-25 22:51 METAR KSLK 260251Z AUTO 00000KT 2SM BR FEW003 SCT008 OVC011 07/07 A2965 RMK AO2
                 RAE17B25E36 SLP044 P0002 60007 T00670067 58011 =
2018-04-25 22:23 METAR KSLK 260223Z AUTO 00000KT 1SM BR BKN003 OVC019 07/07 A2966 RMK AO2 RAE17
                 P0001 T00670067 =
2018-04-25 22:09 METAR KSLK 260209Z AUTO 00000KT 1 3/4SM -RA BR FEW003 OVC026 07/07 A2966 RMK AO2
                 P0001 T00720072 =
2018-04-25 21:51 METAR KSLK 260151Z AUTO 00000KT 5SM -RA BR FEW004 OVC028 08/08 A2967 RMK AO2
                 RAB14 SLP053 P0002 T00780078 =
2018-04-25 21:46 METAR KSLK 260146Z AUTO 00000KT 3SM -RA BR FEW004 OVC028 08/08 A2967 RMK AO2
                 RAB14 P0002 =
2018-04-25 21:38 METAR KSLK 260138Z AUTO 00000KT 2SM -RA BR OVC030 07/07 A2968 RMK AO2 RAB14
                 P0001 T00720072 =
2018-04-25 20:51 METAR KSLK 260051Z AUTO 00000KT 10SM BKN033 OVC060 08/08 A2967 RMK AO2 RAE31
                 SLP055 P0003 T00780078 =
2018-04-25 20:10 METAR KSLK 260010Z AUTO 00000KT 8SM -RA FEW003 BKN055 OVC070 08/08 A2968 RMK AO2
                 P0002 T00830083 =
2018-04-25 19:51 METAR KSLK 252351Z AUTO 06003KT 5SM RA BR BKN060 OVC075 09/09 A2968 RMK AO2
                 SLP057 P0012 60070 T00890089 10106 20089 56018 =
2018-04-25 18:51 METAR KSLK 252251Z AUTO 05004KT 4SM RA BR FEW039 BKN050 OVC070 09/09 A2970 RMK
                 AO2 SLP063 P0009 T00890089 =
2018-04-25 17:51 METAR KSLK 252151Z AUTO 07005KT 8SM -RA FEW037 BKN065 OVC080 09/09 A2972 RMK AO2
                 SLP070 P0014 T00940094 =
2018-04-25 17:15 METAR KSLK 252115Z AUTO 05006KT 4SM RA BR FEW005 BKN060 OVC075 09/09 A2973 RMK
                 AO2 P0006 T00940094 =
2018-04-25 16:51 METAR KSLK 252051Z AUTO 06005KT 4SM RA BR BKN060 OVC075 09/09 A2974 RMK AO2
                 SLP077 P0015 60035 T00940094 58024 =
2018-04-25 15:51 METAR KSLK 251951Z AUTO 09004KT 4SM RA BR OVC034 10/10 A2977 RMK AO2 SLP084
                 P0012 T01000100 =
2018-04-25 15:22 METAR KSLK 251922Z AUTO 08004KT 4SM RA BR FEW025 BKN034 OVC042 10/10 A2978 RMK
                 AO2 P0006 T01000100 =
2018-04-25 14:51 METAR KSLK 251851Z AUTO 05004KT 4SM RA BR FEW014 BKN021 OVC028 10/10 A2979 RMK
                 AO2 SLP094 P0008 T01000100 =
2018-04-25 14:17 METAR KSLK 251817Z AUTO 07004KT 6SM RA BR FEW023 BKN028 OVC037 11/10 A2981 RMK
                 AO2 P0003 T01060100 =
2018-04-25 13:51 METAR KSLK 251751Z AUTO 07007KT 5SM -RA BR FEW025 BKN047 OVC060 11/10 A2981 RMK
                 AO2 SLP100 P0001 60001 T01110100 10122 20067 58035 =
2018-04-25 12:51 METAR KSLK 251651Z AUTO 08007KT 6SM -RA BKN030 BKN037 OVC050 12/09 A2985 RMK AO2
                 RAB18 SLP114 P0000 T01170089 =
2018-04-25 11:51 METAR KSLK 251551Z AUTO 15005KT 10SM OVC050 12/08 A2990 RMK AO2 RAB05E15 SLP131
                 P0000 T01170078 =
2018-04-25 10:51 METAR KSLK 251451Z AUTO VRB04KT 10SM OVC075 12/07 A2992 RMK AO2 RAB24E38 SLP138
                 P0000 60000 T01170072 58026 =
2018-04-25 09:51 METAR KSLK 251351Z AUTO 10004KT 10SM OVC046 10/07 A2995 RMK AO2 SLP148 T01000067
                 =
2018-04-25 09:11 METAR KSLK 251311Z AUTO 08007KT 10SM SCT026 OVC046 09/06 A2997 RMK AO2 T00890061
                 =
2018-04-25 08:51 METAR KSLK 251251Z AUTO 07005KT 10SM BKN026 OVC049 08/06 A2998 RMK AO2
                 RAB1155E28 SLP160 P0000 T00830061 =
2018-04-25 07:51 METAR KSLK 251151Z AUTO 00000KT 10SM FEW039 OVC055 07/06 A3000 RMK AO2 SLP167
                 60000 T00670061 10106 20044 58007 =
2018-04-25 06:51 METAR KSLK 251051Z AUTO 00000KT 10SM OVC048 06/05 A3002 RMK AO2 RAB00E46 SLP170
                 P0000 T00560050 =
2018-04-25 05:51 METAR KSLK 250951Z AUTO 00000KT 10SM BKN045 OVC055 05/03 A3002 RMK AO2 SLP170
                 T00500028 =

Support USWX by starting your Amazon purchase here.